createdAt,value
2022-12-22T00:04:53.468Z,84.60
2022-12-22T00:07:44.106Z,84.30
2022-12-22T00:10:36.941Z,84.50
2022-12-22T00:13:26.976Z,84.60
2022-12-22T00:16:17.225Z,84.70
2022-12-22T00:19:06.037Z,84.80
2022-12-22T00:21:52.308Z,84.90
2022-12-22T00:24:41.125Z,84.90
2022-12-22T00:27:31.789Z,85.00
2022-12-22T00:30:18.235Z,85.00
2022-12-22T00:33:09.203Z,85.10
2022-12-22T00:35:56.930Z,85.20
2022-12-22T00:38:54.242Z,85.20
2022-12-22T00:41:39.847Z,85.20
2022-12-22T00:44:25.372Z,85.20
2022-12-22T00:47:11.127Z,85.20
2022-12-22T00:50:01.130Z,85.10
2022-12-22T00:52:48.488Z,85.10
2022-12-22T00:55:35.617Z,85.10
2022-12-22T00:58:21.879Z,85.20
2022-12-22T01:01:07.850Z,85.20
2022-12-22T01:03:56.558Z,85.30
2022-12-22T01:06:43.463Z,85.60
2022-12-22T01:09:30.574Z,85.60
2022-12-22T01:12:16.438Z,85.70
2022-12-22T01:15:02.419Z,85.80
2022-12-22T01:17:48.397Z,85.80
2022-12-22T01:20:34.115Z,85.90
2022-12-22T01:23:19.870Z,85.90
2022-12-22T01:26:06.821Z,86.00
2022-12-22T01:28:53.023Z,86.00
2022-12-22T01:31:42.727Z,86.00
2022-12-22T01:34:28.204Z,86.00
2022-12-22T01:37:13.750Z,86.00
2022-12-22T01:39:59.869Z,86.00
2022-12-22T01:42:47.168Z,86.10
2022-12-22T01:45:38.319Z,86.10
2022-12-22T01:48:24.718Z,86.10
2022-12-22T01:51:10.145Z,86.20
2022-12-22T01:53:55.803Z,86.20
2022-12-22T01:56:42.389Z,86.20
2022-12-22T01:59:31.240Z,86.20
2022-12-22T02:02:37.058Z,86.20
2022-12-22T02:05:23.761Z,86.20
2022-12-22T02:08:14.828Z,86.30
2022-12-22T02:11:13.868Z,86.30
2022-12-22T02:14:05.710Z,86.30
2022-12-22T02:16:53.841Z,86.30
2022-12-22T02:19:46.384Z,86.30
2022-12-22T02:22:40.463Z,86.30
2022-12-22T02:25:29.456Z,86.30
2022-12-22T02:28:17.453Z,86.30
2022-12-22T02:31:03.348Z,86.40
2022-12-22T02:33:49.218Z,86.40
2022-12-22T02:36:37.053Z,86.50
2022-12-22T02:39:28.121Z,86.50
2022-12-22T02:42:18.390Z,86.50
2022-12-22T02:48:03.214Z,86.50
2022-12-22T02:50:50.273Z,86.50
2022-12-22T02:53:37.820Z,86.50
2022-12-22T02:56:28.072Z,86.40
2022-12-22T02:59:14.229Z,86.40
2022-12-22T03:02:01.795Z,86.40
2022-12-22T03:04:49.066Z,86.30
2022-12-22T03:07:34.539Z,86.30
2022-12-22T03:10:20.898Z,86.20
2022-12-22T03:13:07.506Z,86.20
2022-12-22T03:15:53.571Z,86.20
2022-12-22T03:18:38.826Z,86.20
2022-12-22T03:21:25.721Z,86.10
2022-12-22T03:24:11.575Z,86.10
2022-12-22T03:26:40.465Z,86.10
2022-12-22T03:29:09.119Z,86.10
2022-12-22T03:31:37.305Z,86.00
2022-12-22T03:34:06.645Z,86.00
2022-12-22T03:36:36.175Z,85.90
2022-12-22T03:39:04.727Z,85.90
2022-12-22T03:41:50.820Z,85.90
2022-12-22T03:44:37.328Z,85.80
2022-12-22T03:47:05.526Z,85.80
2022-12-22T03:49:33.697Z,85.80
2022-12-22T03:52:03.625Z,85.80
2022-12-22T03:54:31.866Z,85.80
2022-12-22T03:57:00.106Z,85.80
2022-12-22T03:59:28.595Z,85.80
2022-12-22T04:01:56.762Z,85.80
2022-12-22T04:04:26.702Z,85.80
2022-12-22T04:06:55.685Z,85.70
2022-12-22T04:09:27.427Z,85.70
2022-12-22T04:12:14.497Z,85.50
2022-12-22T04:14:42.414Z,85.40
2022-12-22T04:17:10.839Z,85.30
2022-12-22T04:19:39.100Z,85.30
2022-12-22T04:22:07.386Z,85.20
2022-12-22T04:24:38.234Z,85.20
2022-12-22T04:27:06.158Z,85.20
2022-12-22T04:29:34.570Z,85.30
2022-12-22T04:32:02.996Z,85.30
2022-12-22T04:34:30.926Z,85.30
2022-12-22T04:37:07.087Z,85.30
2022-12-22T04:39:42.814Z,85.30
2022-12-22T04:42:10.868Z,85.30
2022-12-22T04:44:39.059Z,85.30
2022-12-22T04:47:07.052Z,85.30
2022-12-22T04:49:35.272Z,85.30
2022-12-22T04:52:03.783Z,85.50
2022-12-22T04:54:32.086Z,85.50
2022-12-22T04:57:01.825Z,85.60
2022-12-22T04:59:30.173Z,85.60
2022-12-22T05:01:58.762Z,85.60
2022-12-22T05:04:28.004Z,85.70
2022-12-22T05:06:56.263Z,85.70
2022-12-22T05:09:24.445Z,85.70
2022-12-22T05:11:53.552Z,85.70
2022-12-22T05:14:23.202Z,85.70
2022-12-22T05:16:51.286Z,85.70
2022-12-22T05:19:19.872Z,85.60
2022-12-22T05:21:47.978Z,85.50
2022-12-22T05:24:16.666Z,85.50
2022-12-22T05:26:46.084Z,85.50
2022-12-22T05:29:14.149Z,85.50
2022-12-22T05:31:47.269Z,85.50
2022-12-22T05:34:15.671Z,85.50
2022-12-22T05:36:44.001Z,85.50
2022-12-22T05:39:12.990Z,85.60
2022-12-22T05:41:41.517Z,85.70
2022-12-22T05:44:09.681Z,85.70
2022-12-22T05:46:39.437Z,85.70
2022-12-22T05:49:09.043Z,85.80
2022-12-22T05:51:37.600Z,85.70
2022-12-22T05:54:05.795Z,85.80
2022-12-22T05:56:36.559Z,85.80
2022-12-22T05:59:04.747Z,85.80
2022-12-22T06:01:32.971Z,85.80
2022-12-22T06:04:01.286Z,85.70
2022-12-22T06:06:31.230Z,85.80
2022-12-22T06:08:59.571Z,85.80
2022-12-22T06:11:27.946Z,85.70
2022-12-22T06:13:56.101Z,85.70
2022-12-22T06:16:24.635Z,85.70
2022-12-22T06:18:53.512Z,85.60
2022-12-22T06:21:22.750Z,85.60
2022-12-22T06:23:55.101Z,85.50
2022-12-22T06:26:23.527Z,85.50
2022-12-22T06:28:51.761Z,85.60
2022-12-22T06:31:21.213Z,85.50
2022-12-22T06:33:49.595Z,85.50
2022-12-22T06:36:18.351Z,85.60
2022-12-22T06:38:47.099Z,85.60
2022-12-22T06:41:37.289Z,85.50
2022-12-22T06:44:04.599Z,85.40
2022-12-22T06:46:32.721Z,85.30
2022-12-22T06:49:01.126Z,85.40
2022-12-22T06:51:29.533Z,85.40
2022-12-22T06:53:58.105Z,85.50
2022-12-22T06:56:27.985Z,85.50
2022-12-22T06:58:56.100Z,85.40
2022-12-22T07:01:25.048Z,85.30
2022-12-22T07:03:53.699Z,85.20
2022-12-22T07:06:24.580Z,85.10
2022-12-22T07:08:52.679Z,85.00
2022-12-22T07:11:21.175Z,85.00
2022-12-22T07:13:51.433Z,85.10
2022-12-22T07:16:19.615Z,85.20
2022-12-22T07:18:47.796Z,85.20
2022-12-22T07:21:16.331Z,85.20
2022-12-22T07:23:44.953Z,85.20
2022-12-22T07:26:13.873Z,85.20
2022-12-22T07:28:42.475Z,85.30
2022-12-22T07:31:12.663Z,85.30
2022-12-22T07:33:41.222Z,85.40
2022-12-22T07:36:11.377Z,85.40
2022-12-22T07:38:40.735Z,85.40
2022-12-22T07:41:30.063Z,85.30
2022-12-22T07:43:58.282Z,85.30
2022-12-22T07:46:29.152Z,85.30
2022-12-22T07:49:15.472Z,85.30
2022-12-22T07:51:44.373Z,85.20
2022-12-22T07:54:13.838Z,85.10
2022-12-22T07:56:42.364Z,85.00
2022-12-22T07:59:11.893Z,84.90
2022-12-22T08:01:43.608Z,84.90
2022-12-22T08:04:14.837Z,84.70
2022-12-22T08:06:43.915Z,84.70
2022-12-22T08:09:39.451Z,84.60
2022-12-22T08:12:07.938Z,84.50
2022-12-22T08:14:36.153Z,84.40
2022-12-22T08:17:06.119Z,84.90
2022-12-22T08:19:34.651Z,84.80
2022-12-22T08:22:02.710Z,84.60
2022-12-22T08:24:30.955Z,84.10
2022-12-22T08:27:01.011Z,83.90
2022-12-22T08:29:30.725Z,83.70
2022-12-22T08:31:58.932Z,83.50
2022-12-22T08:34:28.715Z,83.40
2022-12-22T08:36:58.016Z,83.40
2022-12-22T08:39:27.207Z,83.30
2022-12-22T08:41:55.593Z,83.40
2022-12-22T08:44:24.676Z,83.30
2022-12-22T08:46:53.877Z,83.10
2022-12-22T08:49:22.795Z,83.00
2022-12-22T08:51:52.899Z,83.10
2022-12-22T08:54:20.916Z,83.10
2022-12-22T08:56:50.622Z,82.80
2022-12-22T08:59:19.128Z,82.80
2022-12-22T09:01:52.037Z,82.80
2022-12-22T09:04:22.697Z,82.60
2022-12-22T09:06:54.604Z,82.50
2022-12-22T09:09:23.189Z,82.50
2022-12-22T09:11:54.322Z,82.70
2022-12-22T09:14:22.483Z,82.70
2022-12-22T09:16:50.911Z,82.80
2022-12-22T09:19:19.718Z,82.80
2022-12-22T09:21:48.220Z,83.10
2022-12-22T09:24:21.151Z,83.30
2022-12-22T09:26:49.703Z,83.40
2022-12-22T09:29:22.286Z,83.30
2022-12-22T09:31:51.760Z,83.50
2022-12-22T09:34:20.481Z,83.20
2022-12-22T09:36:49.054Z,83.30
2022-12-22T09:39:24.983Z,83.30
2022-12-22T09:41:58.316Z,83.40
2022-12-22T09:44:28.623Z,83.20
2022-12-22T09:46:59.123Z,83.30
2022-12-22T09:49:27.575Z,83.20
2022-12-22T09:51:58.713Z,83.30
2022-12-22T09:54:28.908Z,83.50
2022-12-22T09:56:57.588Z,83.30
2022-12-22T09:59:31.363Z,83.30
2022-12-22T10:02:13.147Z,83.30
2022-12-22T10:04:48.439Z,83.40
2022-12-22T10:07:21.851Z,83.50
2022-12-22T10:09:52.214Z,83.50
2022-12-22T10:12:21.745Z,83.30
2022-12-22T10:14:53.381Z,83.40
2022-12-22T10:17:24.330Z,83.60
2022-12-22T10:19:53.758Z,83.50
2022-12-22T10:22:30.564Z,83.50
2022-12-22T10:25:04.028Z,83.50
2022-12-22T10:27:36.190Z,83.40
2022-12-22T10:30:23.278Z,83.40
2022-12-22T10:33:05.589Z,83.20
2022-12-22T10:35:45.780Z,83.20
2022-12-22T10:38:21.611Z,82.90
2022-12-22T10:40:58.231Z,82.90
2022-12-22T10:43:32.246Z,83.00
2022-12-22T10:46:01.092Z,83.40
2022-12-22T10:48:30.175Z,83.80
2022-12-22T10:51:00.461Z,84.00
2022-12-22T10:53:43.032Z,84.30
2022-12-22T10:56:21.006Z,84.50
2022-12-22T10:58:50.772Z,84.70
2022-12-22T11:01:25.155Z,84.70
2022-12-22T11:03:53.533Z,84.70
2022-12-22T11:06:21.604Z,84.60
2022-12-22T11:08:51.849Z,84.50
2022-12-22T11:11:33.623Z,84.40
2022-12-22T11:14:08.829Z,84.40
2022-12-22T11:16:40.659Z,84.30
2022-12-22T11:19:15.740Z,84.20
2022-12-22T11:21:46.878Z,84.20
2022-12-22T11:24:22.097Z,84.20
2022-12-22T11:26:56.676Z,84.10
2022-12-22T11:29:35.546Z,84.10
2022-12-22T11:32:09.726Z,84.10
2022-12-22T11:34:53.397Z,83.90
2022-12-22T11:37:30.815Z,83.80
2022-12-22T11:40:05.804Z,83.80
2022-12-22T11:42:46.158Z,83.70
2022-12-22T11:45:22.829Z,83.80
2022-12-22T11:47:58.506Z,83.70
2022-12-22T11:50:59.388Z,83.70
2022-12-22T11:53:27.898Z,83.70
2022-12-22T11:56:04.205Z,83.80
2022-12-22T11:58:42.896Z,83.90
2022-12-22T12:01:25.759Z,84.10
2022-12-22T12:04:09.246Z,84.50
2022-12-22T12:06:44.202Z,84.60
2022-12-22T12:09:20.453Z,84.80
2022-12-22T12:11:50.472Z,84.90
2022-12-22T12:14:25.141Z,85.00
2022-12-22T12:16:55.637Z,84.40
2022-12-22T12:19:44.607Z,84.40
2022-12-22T12:22:16.089Z,84.40
2022-12-22T12:24:49.003Z,84.40
2022-12-22T12:27:25.505Z,84.30
2022-12-22T12:30:36.566Z,84.30
2022-12-22T12:32:52.722Z,84.20
2022-12-22T12:35:41.563Z,84.10
2022-12-22T12:41:03.342Z,84.80
2022-12-22T12:43:35.094Z,84.60
2022-12-22T12:49:31.451Z,84.60
2022-12-22T12:52:01.521Z,84.70
2022-12-22T12:54:37.601Z,84.80
2022-12-22T12:57:14.281Z,84.80
2022-12-22T13:00:04.373Z,84.80
2022-12-22T13:02:37.159Z,84.90
2022-12-22T13:08:23.027Z,84.80
2022-12-22T13:12:01.734Z,84.50
2022-12-22T13:14:48.096Z,84.50
2022-12-22T13:17:33.902Z,84.50
2022-12-22T13:20:04.688Z,84.40
2022-12-22T13:22:35.053Z,84.30
2022-12-22T13:25:06.317Z,84.20
2022-12-22T13:27:37.137Z,84.00
2022-12-22T13:30:12.927Z,84.00
2022-12-22T13:32:43.386Z,84.00
2022-12-22T13:35:31.115Z,84.00
2022-12-22T13:38:00.720Z,83.90
2022-12-22T13:40:31.605Z,84.00
2022-12-22T13:43:03.015Z,84.00
2022-12-22T13:45:37.354Z,84.20
2022-12-22T13:48:08.453Z,84.30
2022-12-22T13:50:40.518Z,84.50
2022-12-22T13:53:10.399Z,84.60
2022-12-22T13:55:39.240Z,84.80
2022-12-22T13:58:09.390Z,84.90
2022-12-22T14:00:39.751Z,85.00
2022-12-22T14:03:27.794Z,85.00
2022-12-22T14:06:03.867Z,85.00
2022-12-22T14:08:31.962Z,84.20
2022-12-22T14:11:00.475Z,84.20
2022-12-22T14:13:32.162Z,84.10
2022-12-22T14:16:01.269Z,84.70
2022-12-22T14:18:30.042Z,84.40
2022-12-22T14:20:59.225Z,84.20
2022-12-22T14:23:31.940Z,84.10
2022-12-22T14:26:02.039Z,83.80
2022-12-22T14:28:37.433Z,83.70
2022-12-22T14:34:24.830Z,83.70
2022-12-22T14:36:53.938Z,83.60
2022-12-22T14:39:26.423Z,83.60
2022-12-22T14:42:01.470Z,83.50
2022-12-22T14:44:31.722Z,83.30
2022-12-22T14:47:22.759Z,83.30
2022-12-22T14:49:55.222Z,83.30
2022-12-22T14:52:26.308Z,83.30
2022-12-22T14:55:04.072Z,83.40
2022-12-22T14:57:37.582Z,83.10
2022-12-22T15:00:07.404Z,83.20
2022-12-22T15:02:39.865Z,83.10
2022-12-22T15:05:11.165Z,83.20
2022-12-22T15:10:46.345Z,83.00
2022-12-22T15:13:23.845Z,82.80
2022-12-22T15:15:51.958Z,82.70
2022-12-22T15:18:26.675Z,82.70
2022-12-22T15:20:54.966Z,82.60
2022-12-22T15:23:23.427Z,82.50
2022-12-22T15:25:53.254Z,82.40
2022-12-22T15:28:21.718Z,82.50
2022-12-22T15:30:49.856Z,82.40
2022-12-22T15:33:19.204Z,82.20
2022-12-22T15:35:48.333Z,82.20
2022-12-22T15:38:18.690Z,82.20
2022-12-22T15:40:51.650Z,82.20
2022-12-22T15:43:58.964Z,82.10
2022-12-22T15:46:46.660Z,82.10
2022-12-22T15:49:25.623Z,82.10
2022-12-22T15:51:55.937Z,81.90
2022-12-22T15:54:27.048Z,82.00
2022-12-22T15:56:56.250Z,81.90
2022-12-22T15:59:49.586Z,82.00
2022-12-22T16:02:35.282Z,81.90
2022-12-22T16:05:07.433Z,82.10
2022-12-22T16:07:36.584Z,82.30
2022-12-22T16:10:09.724Z,82.40
2022-12-22T16:12:38.736Z,82.40
2022-12-22T16:15:08.425Z,82.60
2022-12-22T16:17:36.875Z,82.70
2022-12-22T16:20:08.419Z,82.70
2022-12-22T16:22:37.906Z,82.70
2022-12-22T16:25:08.086Z,82.60
2022-12-22T16:27:37.040Z,82.70
2022-12-22T16:30:07.184Z,82.90
2022-12-22T16:32:35.637Z,83.10
2022-12-22T16:35:16.061Z,83.20
2022-12-22T16:37:45.107Z,83.30
2022-12-22T16:40:17.033Z,83.30
2022-12-22T16:45:39.723Z,83.50
2022-12-22T16:48:11.124Z,83.60
2022-12-22T16:50:40.603Z,83.60
2022-12-22T16:53:11.066Z,83.70
2022-12-22T16:55:39.356Z,84.00
2022-12-22T16:58:13.497Z,84.10
2022-12-22T17:00:46.346Z,84.20
2022-12-22T17:03:15.857Z,84.30
2022-12-22T17:05:48.278Z,84.40
2022-12-22T17:08:19.926Z,84.50
2022-12-22T17:10:48.707Z,84.60
2022-12-22T17:13:18.704Z,84.70
2022-12-22T17:15:47.339Z,84.80
2022-12-22T17:18:19.849Z,84.80
2022-12-22T17:20:51.059Z,84.90
2022-12-22T17:23:27.847Z,84.90
2022-12-22T17:25:55.876Z,85.00
2022-12-22T17:28:24.186Z,85.00
2022-12-22T17:30:52.428Z,85.00
2022-12-22T17:33:20.627Z,84.40
2022-12-22T17:35:50.432Z,84.50
2022-12-22T17:38:19.852Z,84.50
2022-12-22T17:40:49.283Z,84.50
2022-12-22T17:43:19.716Z,84.60
2022-12-22T17:45:48.701Z,84.60
2022-12-22T17:48:22.252Z,84.60
2022-12-22T17:50:52.454Z,84.60
2022-12-22T17:53:22.277Z,84.60
2022-12-22T17:56:08.915Z,84.70
2022-12-22T17:58:40.334Z,84.60
2022-12-22T18:01:11.647Z,84.60
2022-12-22T18:03:39.786Z,84.70
2022-12-22T18:06:14.377Z,84.80
2022-12-22T18:08:46.598Z,84.80
2022-12-22T18:11:16.667Z,84.90
2022-12-22T18:13:45.019Z,84.80
2022-12-22T18:16:15.262Z,84.80
2022-12-22T18:18:44.055Z,84.80
2022-12-22T18:21:18.198Z,84.90
2022-12-22T18:23:50.349Z,85.00
2022-12-22T18:26:23.396Z,85.10
2022-12-22T18:28:51.912Z,85.10
2022-12-22T18:31:21.771Z,85.10
2022-12-22T18:33:50.005Z,84.90
2022-12-22T18:36:21.382Z,84.80
2022-12-22T18:38:51.023Z,84.70
2022-12-22T18:41:22.379Z,84.60
2022-12-22T18:43:51.329Z,84.50
2022-12-22T18:46:20.326Z,84.50
2022-12-22T18:48:49.423Z,84.40
2022-12-22T18:51:23.379Z,84.30
2022-12-22T18:53:52.913Z,84.40
2022-12-22T18:56:21.317Z,84.40
2022-12-22T18:58:50.105Z,84.40
2022-12-22T19:01:20.449Z,84.40
2022-12-22T19:03:48.945Z,84.40
2022-12-22T19:06:19.136Z,84.40
2022-12-22T19:08:48.510Z,84.40
2022-12-22T19:11:17.580Z,84.50
2022-12-22T19:13:47.669Z,84.50
2022-12-22T19:16:18.532Z,84.60
2022-12-22T19:18:47.393Z,84.60
2022-12-22T19:21:16.401Z,84.70
2022-12-22T19:23:45.053Z,84.70
2022-12-22T19:26:19.043Z,84.70
2022-12-22T19:28:47.232Z,84.80
2022-12-22T19:31:19.379Z,84.90
2022-12-22T19:33:47.930Z,84.90
2022-12-22T19:36:18.592Z,85.10
2022-12-22T19:38:50.499Z,85.20
2022-12-22T19:41:30.982Z,85.30
2022-12-22T19:43:59.286Z,85.40
2022-12-22T19:46:29.664Z,85.50
2022-12-22T19:48:58.163Z,85.50
2022-12-22T19:51:26.799Z,85.50
2022-12-22T19:53:55.592Z,85.50
2022-12-22T19:56:26.829Z,85.30
2022-12-22T19:58:55.568Z,85.30
2022-12-22T20:01:24.389Z,85.20
2022-12-22T20:03:52.799Z,85.10
2022-12-22T20:06:21.375Z,85.00
2022-12-22T20:08:49.523Z,85.00
2022-12-22T20:11:19.173Z,85.00
2022-12-22T20:13:50.874Z,85.00
2022-12-22T20:16:19.558Z,85.10
2022-12-22T20:18:48.377Z,85.10
2022-12-22T20:21:25.754Z,85.20
2022-12-22T20:23:54.503Z,85.20
2022-12-22T20:26:23.601Z,85.10
2022-12-22T20:28:53.773Z,85.30
2022-12-22T20:31:24.283Z,85.40
2022-12-22T20:33:55.159Z,85.40
2022-12-22T20:36:26.466Z,85.50
2022-12-22T20:38:56.461Z,85.60
2022-12-22T20:41:25.551Z,85.70
2022-12-22T20:43:56.036Z,85.70
2022-12-22T20:46:25.521Z,85.80
2022-12-22T20:48:56.959Z,85.90
2022-12-22T20:51:25.945Z,86.00
2022-12-22T20:53:55.059Z,86.00
2022-12-22T20:56:25.926Z,86.10
2022-12-22T20:58:56.233Z,86.20
2022-12-22T21:01:25.891Z,86.20
2022-12-22T21:03:54.342Z,86.20
2022-12-22T21:06:26.577Z,86.30
2022-12-22T21:08:55.891Z,86.30
2022-12-22T21:11:25.604Z,86.30
2022-12-22T21:13:56.064Z,86.30
2022-12-22T21:16:26.203Z,86.30
2022-12-22T21:18:55.423Z,86.40
2022-12-22T21:21:23.893Z,86.40
2022-12-22T21:23:52.060Z,86.50
2022-12-22T21:26:23.572Z,86.50
2022-12-22T21:28:53.249Z,86.50
2022-12-22T21:31:22.944Z,86.50
2022-12-22T21:33:51.622Z,86.60
2022-12-22T21:36:22.580Z,86.60
2022-12-22T21:38:54.045Z,86.60
2022-12-22T21:41:42.979Z,86.60
2022-12-22T21:44:12.794Z,86.60
2022-12-22T21:46:43.773Z,86.50
2022-12-22T21:49:19.871Z,86.50
2022-12-22T21:51:48.496Z,86.50
2022-12-22T21:54:17.385Z,86.50
2022-12-22T21:56:45.776Z,86.50
2022-12-22T21:59:14.567Z,86.50
2022-12-22T22:01:44.933Z,86.60
2022-12-22T22:04:13.413Z,86.60
2022-12-22T22:06:42.707Z,86.60
2022-12-22T22:09:13.837Z,86.50
2022-12-22T22:11:56.475Z,86.50
2022-12-22T22:14:25.157Z,86.40
2022-12-22T22:16:55.373Z,86.40
2022-12-22T22:19:23.424Z,86.30
2022-12-22T22:21:51.382Z,86.30
2022-12-22T22:24:20.463Z,86.30
2022-12-22T22:26:50.494Z,86.30
2022-12-22T22:29:19.836Z,86.20
2022-12-22T22:31:48.239Z,86.20
2022-12-22T22:34:18.083Z,86.10
2022-12-22T22:36:47.371Z,86.20
2022-12-22T22:39:15.978Z,86.20
2022-12-22T22:41:44.112Z,86.20
2022-12-22T22:44:12.496Z,86.20
2022-12-22T22:46:40.883Z,86.20
2022-12-22T22:49:09.366Z,86.10
2022-12-22T22:51:41.779Z,86.10
2022-12-22T22:54:10.504Z,86.10
2022-12-22T22:56:41.838Z,86.10
2022-12-22T22:59:12.168Z,86.10
2022-12-22T23:01:41.917Z,86.10
2022-12-22T23:04:11.287Z,86.10
2022-12-22T23:06:42.428Z,86.10
2022-12-22T23:09:11.252Z,86.20
2022-12-22T23:11:39.621Z,86.20
2022-12-22T23:14:08.061Z,86.20
2022-12-22T23:16:38.717Z,86.20
2022-12-22T23:19:07.477Z,86.20
2022-12-22T23:21:35.925Z,86.20
2022-12-22T23:24:05.805Z,86.20
2022-12-22T23:26:34.023Z,86.20
2022-12-22T23:29:03.883Z,86.20
2022-12-22T23:31:32.772Z,86.20
2022-12-22T23:34:01.328Z,86.20
2022-12-22T23:36:29.823Z,86.20
2022-12-22T23:38:58.674Z,86.10
2022-12-22T23:41:29.132Z,85.90
2022-12-22T23:43:57.890Z,85.90
2022-12-22T23:46:26.865Z,85.80
2022-12-22T23:48:56.051Z,85.80
2022-12-22T23:51:24.752Z,85.80
2022-12-22T23:53:53.011Z,85.70
2022-12-22T23:56:21.076Z,85.80
2022-12-22T23:58:54.443Z,85.90
